Terminal Aerodrome Forecast
Issued by NWS Pueblo, CO

Home | Current Version | Previous Version | Text Only | Print | Product List | Glossary On
Versions: 1 2 3 4 5 6 7 8 9 10 11 12 13 14 15 16 17 18 19 20 21 22 23 24 25 26 27 28 29 30 31 32 33 34 35 36 37 38 39 40 41 42 43 44
000
FTUS45 KPUB 261253 AAB
TAFPUB
TAF AMD
KPUB 261253Z 2613/2712 VRB06KT P6SM FEW010 SCT120 SCT170
      TEMPO 2613/2617 BKN030
     FM261700 10007KT P6SM FEW060 SCT120 SCT170
     FM262300 VRB06KT P6SM FEW080 SCT140=

USA.gov is the U.S. government's official web portal to all federal, state and local government web resources and services.